Time;durP1;ratioP1;P1;durP2;ratioP2;P2;SDS_P1;SDS_P2;PMS_P1;PMS_P2;Temp;Humidity;BMP_temperature;BMP_pressure;BME280_temperature;BME280_humidity;BME280_pressure;Samples;Min_cycle;Max_cycle;Signal;HPM_P1;HPM_P2
2022/09/04 00:02:00;;;;;;;2.42;1.52;;;16.70;98.90;;;;;;4976179;28;20042;-86
2022/09/04 00:04:54;;;;;;;2.50;1.48;;;16.60;98.90;;;;;;4988149;28;20049;-85
2022/09/04 00:07:27;;;;;;;3.33;1.40;;;16.60;99.10;;;;;;4986882;28;20065;-86
2022/09/04 00:10:08;;;;;;;2.22;1.33;;;16.60;99.10;;;;;;4992492;28;20061;-86
2022/09/04 00:13:05;;;;;;;4.40;1.60;;;16.50;99.20;;;;;;4992633;28;20105;-88
2022/09/04 00:15:48;;;;;;;1.88;1.40;;;16.50;99.20;;;;;;4987898;28;20448;-88
2022/09/04 00:18:41;;;;;;;2.63;1.60;;;16.50;99.50;;;;;;5006499;28;20073;-88
2022/09/04 00:21:45;;;;;;;6.45;1.45;;;16.40;99.40;;;;;;4969924;28;20054;-88
2022/09/04 00:24:17;;;;;;;2.95;1.50;;;16.40;99.30;;;;;;4975239;28;20093;-86
2022/09/04 00:27:07;;;;;;;2.28;1.25;;;16.40;99.30;;;;;;4985472;28;20050;-87
2022/09/04 00:30:00;;;;;;;3.58;1.50;;;16.40;99.60;;;;;;4982693;28;20042;-87
2022/09/04 00:32:26;;;;;;;4.25;1.42;;;16.30;99.50;;;;;;4989536;28;20038;-87
2022/09/04 00:35:04;;;;;;;3.70;1.48;;;16.30;99.50;;;;;;4988778;28;20105;-87
2022/09/04 00:37:41;;;;;;;2.85;1.40;;;15.70;99.50;;;;;;5006751;28;20052;-88
2022/09/04 00:40:28;;;;;;;2.78;1.60;;;15.40;99.60;;;;;;4952090;28;20065;-87
2022/09/04 00:42:57;;;;;;;5.95;1.65;;;15.40;99.60;;;;;;5001535;28;20384;-89
2022/09/04 00:45:40;;;;;;;2.65;1.48;;;16.10;99.70;;;;;;4991277;28;20046;-88
2022/09/04 00:48:37;;;;;;;3.33;1.80;;;16.10;99.90;;;;;;4982892;28;20053;-87
2022/09/04 00:51:24;;;;;;;3.33;1.65;;;16.00;99.90;;;;;;4973796;28;20049;-88
2022/09/04 00:54:16;;;;;;;3.97;1.75;;;16.00;99.90;;;;;;4981742;28;20050;-87
2022/09/04 00:57:12;;;;;;;4.30;1.67;;;15.90;99.90;;;;;;4983140;28;20057;-87
2022/09/04 00:59:53;;;;;;;4.82;1.70;;;15.90;99.90;;;;;;5002318;28;20050;-88
2022/09/04 01:02:44;;;;;;;3.38;1.90;;;15.90;99.90;;;;;;4983819;28;20492;-87
2022/09/04 01:05:43;;;;;;;4.72;1.75;;;15.80;99.90;;;;;;4986373;28;20054;-87
2022/09/04 01:08:27;;;;;;;4.63;1.85;;;15.80;99.90;;;;;;4965097;28;20052;-86
2022/09/04 01:11:40;;;;;;;3.90;1.73;;;15.70;99.90;;;;;;4967206;28;20125;-87
2022/09/04 01:14:38;;;;;;;4.18;1.90;;;15.70;99.90;;;;;;4950784;28;20042;-87
2022/09/04 01:17:15;;;;;;;2.53;1.90;;;15.70;99.90;;;;;;4970539;28;20529;-86
2022/09/04 01:19:41;;;;;;;3.38;1.80;;;15.70;99.90;;;;;;4981479;28;20128;-88
2022/09/04 01:22:32;;;;;;;5.45;1.70;;;15.60;99.90;;;;;;4981607;28;20610;-87
2022/09/04 01:25:31;;;;;;;4.38;1.75;;;15.60;99.90;;;;;;4983549;28;20046;-86
2022/09/04 01:28:38;;;;;;;4.13;1.55;;;15.60;99.90;;;;;;4984901;28;20499;-87
2022/09/04 01:31:23;;;;;;;2.60;1.70;;;15.60;99.90;;;;;;4981439;28;20053;-87
2022/09/04 01:34:19;;;;;;;2.33;1.60;;;15.60;99.90;;;;;;4984341;28;20050;-87
2022/09/04 01:36:49;;;;;;;5.65;2.10;;;15.50;99.90;;;;;;4981179;28;20045;-88
2022/09/04 01:39:19;;;;;;;3.08;1.80;;;15.50;99.90;;;;;;4986609;28;20042;-87
2022/09/04 01:41:56;;;;;;;4.80;1.92;;;15.40;99.90;;;;;;4985091;28;20078;-87
2022/09/04 01:44:22;;;;;;;3.17;1.40;;;15.40;99.90;;;;;;4980947;28;20108;-87
2022/09/04 01:47:02;;;;;;;2.92;1.55;;;15.40;99.90;;;;;;4968100;28;20057;-87
2022/09/04 01:49:51;;;;;;;2.58;1.77;;;15.30;99.90;;;;;;4982790;28;20049;-86
2022/09/04 01:52:54;;;;;;;2.33;1.50;;;15.30;99.90;;;;;;4962067;28;20050;-87
2022/09/04 01:55:20;;;;;;;3.25;1.60;;;15.30;99.90;;;;;;4972560;28;20579;-89
2022/09/04 01:58:15;;;;;;;2.47;1.67;;;15.30;99.90;;;;;;4987662;28;20129;-85
2022/09/04 02:01:20;;;;;;;3.05;1.58;;;15.30;99.90;;;;;;4967406;28;20471;-86
2022/09/04 02:04:33;;;;;;;2.20;1.73;;;15.30;99.90;;;;;;4984285;28;20125;-86
2022/09/04 02:07:11;;;;;;;2.10;1.50;;;15.30;99.90;;;;;;4966622;28;20050;-87
2022/09/04 02:10:28;;;;;;;2.97;1.95;;;15.20;99.90;;;;;;4965452;28;20048;-88
2022/09/04 02:13:02;;;;;;;3.15;1.83;;;15.20;99.90;;;;;;4942793;28;20050;-85
2022/09/04 02:15:56;;;;;;;2.80;1.97;;;15.20;99.90;;;;;;4976272;28;20042;-84
2022/09/04 02:18:31;;;;;;;4.63;2.42;;;15.10;99.90;;;;;;4966120;28;20045;-86
2022/09/04 02:21:26;;;;;;;4.00;2.00;;;15.10;99.90;;;;;;4965706;28;20547;-86
2022/09/04 02:24:16;;;;;;;5.13;2.00;;;15.10;99.90;;;;;;4998324;28;21161;-85
2022/09/04 02:26:59;;;;;;;3.17;1.83;;;15.00;99.90;;;;;;4978712;28;20046;-86
2022/09/04 02:29:41;;;;;;;2.47;1.60;;;15.00;99.90;;;;;;4971099;28;20047;-86
2022/09/04 02:32:18;;;;;;;2.63;1.70;;;14.90;99.90;;;;;;4965681;28;20042;-86
2022/09/04 02:34:58;;;;;;;3.05;2.00;;;14.90;99.90;;;;;;4981315;28;20038;-85
2022/09/04 02:37:44;;;;;;;3.90;2.08;;;14.20;99.90;;;;;;4978252;28;20041;-85
2022/09/04 02:40:28;;;;;;;2.60;1.52;;;14.80;99.90;;;;;;4965114;28;20046;-84
2022/09/04 02:43:13;;;;;;;4.20;1.95;;;14.80;99.90;;;;;;4981393;28;20056;-86
2022/09/04 02:46:06;;;;;;;3.45;1.92;;;14.80;99.90;;;;;;4980096;28;20108;-85
2022/09/04 02:48:56;;;;;;;3.67;1.90;;;14.70;99.90;;;;;;4999726;28;20104;-86
2022/09/04 02:51:40;;;;;;;5.03;2.05;;;15.10;99.90;;;;;;4969897;28;20069;-86
2022/09/04 02:54:41;;;;;;;3.10;1.90;;;14.70;99.90;;;;;;4982201;28;20124;-85
2022/09/04 02:57:28;;;;;;;3.40;2.00;;;14.70;99.90;;;;;;4984534;28;20046;-86
2022/09/04 03:00:06;;;;;;;3.22;1.95;;;14.70;99.90;;;;;;4982744;28;20050;-86
2022/09/04 03:02:43;;;;;;;2.78;2.15;;;14.60;99.90;;;;;;4970825;28;20066;-86
2022/09/04 03:05:34;;;;;;;3.13;2.17;;;14.60;99.90;;;;;;4986688;28;20045;-86
2022/09/04 03:08:17;;;;;;;3.08;1.85;;;14.70;99.90;;;;;;4968294;28;20145;-86
2022/09/04 03:11:01;;;;;;;3.47;1.95;;;14.70;99.90;;;;;;4977856;28;20116;-86
2022/09/04 03:13:35;;;;;;;2.75;1.95;;;14.60;99.90;;;;;;4960670;28;20069;-87
2022/09/04 03:16:20;;;;;;;4.03;2.10;;;14.60;99.90;;;;;;4959694;28;20096;-85
2022/09/04 03:19:25;;;;;;;3.65;1.80;;;14.60;99.90;;;;;;4975734;28;20053;-87
2022/09/04 03:22:35;;;;;;;3.13;1.90;;;14.50;99.90;;;;;;4973085;28;20046;-86
2022/09/04 03:25:46;;;;;;;4.47;2.13;;;14.60;99.90;;;;;;4966766;28;20104;-87
2022/09/04 03:28:26;;;;;;;4.15;2.10;;;14.50;99.90;;;;;;4941094;28;20062;-86
2022/09/04 03:30:58;;;;;;;3.03;2.00;;;14.50;99.90;;;;;;4982555;28;20046;-86
2022/09/04 03:33:45;;;;;;;3.60;2.13;;;14.50;99.90;;;;;;4977239;28;20074;-87
2022/09/04 03:36:39;;;;;;;4.60;2.05;;;14.50;99.90;;;;;;4975182;28;20057;-86
2022/09/04 03:39:17;;;;;;;4.20;2.30;;;14.40;99.90;;;;;;4989131;28;20177;-87
2022/09/04 03:42:27;;;;;;;3.50;2.17;;;14.50;99.90;;;;;;4976311;28;20595;-86
2022/09/04 03:44:56;;;;;;;3.10;1.90;;;14.40;99.90;;;;;;4953180;28;20138;-87
2022/09/04 03:47:40;;;;;;;2.55;1.75;;;14.40;99.90;;;;;;4982704;28;20097;-88
2022/09/04 03:50:41;;;;;;;3.97;1.95;;;14.30;99.90;;;;;;4968916;28;20046;-87
2022/09/04 03:53:34;;;;;;;5.20;2.15;;;13.90;99.90;;;;;;4961050;28;20034;-86
2022/09/04 03:56:31;;;;;;;4.97;2.13;;;14.30;99.90;;;;;;4978561;28;20061;-89
2022/09/04 03:59:28;;;;;;;3.58;2.20;;;14.30;99.90;;;;;;4962879;28;20050;-87
2022/09/04 04:02:05;;;;;;;4.70;2.33;;;13.70;99.90;;;;;;4978210;28;20046;-87
2022/09/04 04:05:01;;;;;;;4.50;2.03;;;14.30;99.90;;;;;;4990004;28;20053;-87
2022/09/04 04:07:29;;;;;;;2.50;1.80;;;14.20;99.90;;;;;;4939705;28;1342737;-87
2022/09/04 04:10:15;;;;;;;3.30;2.13;;;14.20;99.90;;;;;;4973822;28;20054;-87
2022/09/04 04:13:11;;;;;;;3.00;2.28;;;14.20;99.90;;;;;;4964047;28;20046;-88
2022/09/04 04:16:00;;;;;;;3.27;2.20;;;14.20;99.90;;;;;;4990844;28;20154;-85
2022/09/04 04:18:46;;;;;;;2.80;1.98;;;14.30;99.90;;;;;;4994010;28;20038;-84
2022/09/04 04:21:37;;;;;;;2.97;2.53;;;14.20;99.90;;;;;;4972824;28;20062;-88
2022/09/04 04:24:18;;;;;;;3.45;2.20;;;14.20;99.90;;;;;;5000959;28;20101;-87
2022/09/04 04:26:56;;;;;;;3.15;2.30;;;14.20;99.90;;;;;;5002868;28;20125;-87
2022/09/04 04:29:48;;;;;;;4.03;2.40;;;14.10;99.90;;;;;;4991222;28;20076;-86
2022/09/04 04:32:34;;;;;;;3.90;2.33;;;14.10;99.90;;;;;;4992055;28;20141;-86
2022/09/04 04:35:20;;;;;;;7.35;2.22;;;14.10;99.90;;;;;;4976020;28;20081;-86
2022/09/04 04:38:18;;;;;;;5.82;2.65;;;14.10;99.90;;;;;;4991553;28;20054;-86
2022/09/04 04:40:46;;;;;;;2.65;2.00;;;14.00;99.90;;;;;;5004618;28;20042;-87
2022/09/04 04:44:01;;;;;;;5.10;2.17;;;13.90;99.90;;;;;;4985755;28;20054;-86
2022/09/04 04:46:51;;;;;;;4.13;2.30;;;14.00;99.90;;;;;;4936193;28;20054;-87
2022/09/04 04:49:49;;;;;;;2.42;1.98;;;14.00;99.90;;;;;;5003797;28;20909;-86
2022/09/04 04:52:18;;;;;;;6.43;2.63;;;14.00;99.90;;;;;;5008085;28;20030;-86
2022/09/04 04:54:52;;;;;;;3.03;2.20;;;14.00;99.90;;;;;;4987759;28;20106;-84
2022/09/04 04:57:37;;;;;;;5.00;2.38;;;14.00;99.90;;;;;;4990884;28;20400;-84
2022/09/04 05:00:35;;;;;;;3.30;2.28;;;13.50;99.90;;;;;;5001438;28;20472;-87
2022/09/04 05:03:20;;;;;;;3.97;2.10;;;13.60;99.90;;;;;;4987736;28;20054;-87
2022/09/04 05:06:18;;;;;;;4.43;2.78;;;13.90;99.90;;;;;;4992386;28;20046;-86
2022/09/04 05:08:55;;;;;;;4.72;2.60;;;13.90;99.90;;;;;;4991031;28;20059;-87
2022/09/04 05:11:49;;;;;;;5.32;3.00;;;13.90;99.90;;;;;;4988186;28;20053;-87
2022/09/04 05:14:43;;;;;;;4.60;2.40;;;13.90;99.90;;;;;;5001900;28;20053;-86
2022/09/04 05:17:40;;;;;;;3.47;2.50;;;13.90;99.90;;;;;;5001424;28;20054;-88
2022/09/04 05:20:36;;;;;;;4.32;2.50;;;14.00;99.90;;;;;;4988428;28;20128;-88
2022/09/04 05:23:20;;;;;;;4.65;2.13;;;13.90;99.90;;;;;;4972324;28;20097;-87
2022/09/04 05:26:12;;;;;;;4.65;2.50;;;13.90;99.90;;;;;;4983284;28;20080;-88
2022/09/04 05:28:59;;;;;;;3.08;2.75;;;14.00;99.90;;;;;;4977732;28;20083;-88
2022/09/04 05:31:57;;;;;;;5.35;2.47;;;14.00;99.90;;;;;;4985029;28;20501;-88
2022/09/04 05:34:57;;;;;;;3.40;2.40;;;14.00;99.90;;;;;;4962296;28;20120;-86
2022/09/04 05:37:45;;;;;;;3.15;2.15;;;14.10;99.90;;;;;;4976894;28;20096;-87
2022/09/04 05:40:22;;;;;;;2.97;2.40;;;14.10;99.90;;;;;;4984500;28;20054;-86
2022/09/04 05:43:04;;;;;;;4.28;2.70;;;14.10;99.90;;;;;;4967747;28;20049;-85
2022/09/04 05:46:14;;;;;;;3.25;2.42;;;14.10;99.90;;;;;;4969441;28;20042;-87
2022/09/04 05:49:10;;;;;;;4.18;2.50;;;14.20;99.90;;;;;;4944949;28;20522;-87
2022/09/04 05:52:14;;;;;;;3.20;2.37;;;14.20;99.90;;;;;;4981814;28;20464;-86
2022/09/04 05:55:25;;;;;;;3.50;2.42;;;14.30;99.90;;;;;;4933735;28;20527;-86
2022/09/04 05:58:19;;;;;;;2.88;2.20;;;14.30;99.90;;;;;;4985582;28;20100;-85
2022/09/04 06:01:15;;;;;;;3.45;2.35;;;14.40;99.90;;;;;;4979483;28;20046;-84
2022/09/04 06:03:52;;;;;;;3.55;2.30;;;14.40;99.90;;;;;;4977573;28;20042;-85
2022/09/04 06:06:55;;;;;;;5.97;2.65;;;14.40;99.90;;;;;;4967813;28;20158;-84
2022/09/04 06:09:24;;;;;;;3.83;2.40;;;14.50;99.90;;;;;;4978844;28;20146;-86
2022/09/04 06:12:12;;;;;;;4.28;2.40;;;14.50;99.90;;;;;;4956878;28;20043;-85
2022/09/04 06:14:59;;;;;;;6.60;2.60;;;14.60;99.90;;;;;;4976916;28;20964;-83
2022/09/04 06:17:43;;;;;;;4.78;2.28;;;14.70;99.90;;;;;;4977517;28;20046;-85
2022/09/04 06:20:18;;;;;;;3.67;2.38;;;14.70;99.90;;;;;;4984158;28;20043;-86
2022/09/04 06:23:09;;;;;;;3.58;2.47;;;14.80;99.90;;;;;;4974079;28;20222;-82
2022/09/04 06:26:14;;;;;;;3.00;2.10;;;14.90;99.90;;;;;;4974476;28;20050;-85
2022/09/04 06:28:58;;;;;;;4.43;2.47;;;15.00;99.90;;;;;;4971576;28;20508;-85
2022/09/04 06:31:46;;;;;;;4.60;2.55;;;15.20;99.90;;;;;;4999389;28;20090;-84
2022/09/04 06:34:39;;;;;;;6.65;2.33;;;15.10;99.90;;;;;;4979318;28;20050;-86
2022/09/04 06:37:38;;;;;;;4.60;2.38;;;15.30;99.90;;;;;;4982663;28;20042;-86
2022/09/04 06:40:36;;;;;;;4.45;2.33;;;15.30;99.90;;;;;;4981839;28;20046;-86
2022/09/04 06:44:04;;;;;;;;;;;;;;;;;;;;;
2022/09/04 06:47:14;;;;;;;2.60;2.00;;;15.50;99.90;;;;;;4996611;28;20065;-92
2022/09/04 06:54:24;;;;;;;;;;;;;;;;;;;;;
2022/09/04 07:01:26;;;;;;;;;;;;;;;;;;;;;
2022/09/04 07:05:20;;;;;;;3.78;2.03;;;16.10;99.90;;;;;;4920758;29;20490;-93
2022/09/04 07:08:37;;;;;;;;;;;;;;;;;;;;;
2022/09/04 07:15:28;;;;;;;3.15;2.30;;;16.90;99.90;;;;;;4939990;29;20064;-94
2022/09/04 07:26:16;;;;;;;3.97;2.40;;;17.40;99.90;;;;;;4873092;29;20053;-90
2022/09/04 08:07:34;;;;;;;4.88;3.63;;;19.80;99.90;;;;;;4769020;29;20068;-86
2022/09/04 08:10:41;;;;;;;4.10;3.70;;;19.90;99.90;;;;;;4806961;29;20102;-88
2022/09/04 08:19:35;;;;;;;4.88;4.38;;;21.30;99.90;;;;;;4882421;28;20058;-89
2022/09/04 08:22:14;;;;;;;5.70;4.38;;;21.50;99.90;;;;;;4967242;28;20141;-87
2022/09/04 08:25:12;;;;;;;6.68;4.70;;;22.00;99.90;;;;;;4985926;28;20211;-88
2022/09/04 08:31:41;;;;;;;6.15;4.65;;;22.50;99.90;;;;;;4978950;28;20057;-91
2022/09/04 08:34:55;;;;;;;;;;;;;;;;;;;;;
2022/09/04 08:37:47;;;;;;;6.32;5.32;;;22.50;99.90;;;;;;4980760;28;20096;-86
2022/09/04 08:44:57;;;;;;;;;;;;;;;;;;;;;
2022/09/04 08:48:32;;;;;;;;;;;;;;;;;;;;;
2022/09/04 08:59:41;;;;;;;4.72;4.22;;;22.80;99.90;;;;;;4971188;28;20166;-90
2022/09/04 09:02:05;;;;;;;7.25;5.00;;;23.40;99.90;;;;;;4951686;28;20055;-82
2022/09/04 09:05:05;;;;;;;5.93;4.30;;;23.90;99.90;;;;;;4949852;28;20048;-89
2022/09/04 09:08:03;;;;;;;4.95;4.20;;;24.40;99.90;;;;;;4944828;28;20047;-86
2022/09/04 09:10:48;;;;;;;9.05;4.28;;;24.90;99.90;;;;;;4927673;29;20167;-85
2022/09/04 09:13:48;;;;;;;7.88;4.13;;;24.50;99.50;;;;;;4911074;29;20047;-85
2022/09/04 09:16:31;;;;;;;5.88;3.70;;;24.70;99.30;;;;;;4940958;29;20066;-85
2022/09/04 09:19:21;;;;;;;8.27;3.53;;;24.90;99.00;;;;;;4909712;29;20066;-86
2022/09/04 09:22:28;;;;;;;4.95;3.55;;;25.10;98.60;;;;;;4932593;29;20055;-87
2022/09/04 09:25:19;;;;;;;6.32;3.85;;;25.00;97.80;;;;;;4919888;29;21431;-85
2022/09/04 09:28:16;;;;;;;4.88;3.72;;;25.00;98.60;;;;;;4909770;28;20043;-86
2022/09/04 09:31:17;;;;;;;5.35;3.88;;;25.10;98.40;;;;;;4948143;28;20134;-88
2022/09/04 09:34:21;;;;;;;4.10;3.03;;;25.20;98.10;;;;;;4969117;28;20046;-88
2022/09/04 09:37:30;;;;;;;3.78;3.00;;;25.40;97.80;;;;;;4949038;28;20050;-88
2022/09/04 09:40:41;;;;;;;;;;;;;;;;;;;;;
2022/09/04 09:47:48;;;;;;;5.63;3.22;;;25.70;97.20;;;;;;4961979;28;20051;-93
2022/09/04 09:58:43;;;;;;;6.00;3.10;;;25.40;96.70;;;;;;4869867;29;20048;-90
2022/09/04 10:05:40;;;;;;;4.43;2.70;;;26.10;96.70;;;;;;4894277;29;20060;-90
2022/09/04 10:08:41;;;;;;;5.60;2.33;;;26.30;96.00;;;;;;4885996;29;20056;-90
2022/09/04 10:11:49;;;;;;;3.83;2.55;;;26.40;96.00;;;;;;4927129;28;20508;-90
2022/09/04 10:14:50;;;;;;;;;;;;;;;;;;;;;
2022/09/04 10:17:55;;;;;;;4.35;2.80;;;26.50;95.30;;;;;;4965998;28;20043;-91
2022/09/04 10:20:45;;;;;;;3.42;2.75;;;26.70;95.00;;;;;;4958548;28;20202;-90
2022/09/04 10:24:05;;;;;;;3.13;2.45;;;26.70;95.30;;;;;;4949575;28;20420;-89
2022/09/04 10:35:04;;;;;;;;;;;;;;;;;;;;;
2022/09/04 10:38:20;;;;;;;4.50;2.17;;;27.50;94.40;;;;;;4982710;28;20600;-87
2022/09/04 10:41:47;;;;;;;;;;;;;;;;;;;;;
2022/09/04 10:48:07;;;;;;;3.97;2.20;;;28.00;93.10;;;;;;4965545;28;20109;-89
2022/09/04 10:51:17;;;;;;;;;;;;;;;;;;;;;
2022/09/04 10:54:21;;;;;;;4.18;1.80;;;28.50;92.50;;;;;;4956017;28;20051;-89
2022/09/04 10:57:09;;;;;;;3.03;1.63;;;28.70;92.40;;;;;;4904245;28;20059;-90
2022/09/04 10:59:55;;;;;;;1.77;1.48;;;28.60;91.50;;;;;;4962044;28;20049;-89
2022/09/04 11:02:42;;;;;;;1.98;1.48;;;28.60;91.20;;;;;;4938059;28;20567;-90
2022/09/04 11:05:35;;;;;;;4.65;2.15;;;28.80;90.90;;;;;;4988326;28;20051;-88
2022/09/04 11:11:38;;;;;;;;;;;;;;;;;;;;;
2022/09/04 11:18:21;;;;;;;;;;;;;;;;;;;;;
2022/09/04 11:21:20;;;;;;;2.25;1.50;;;29.10;89.60;;;;;;4923609;29;20560;-87
2022/09/04 11:24:19;;;;;;;1.73;1.40;;;29.00;89.50;;;;;;4938579;29;20059;-87
2022/09/04 11:31:08;;;;;;;3.08;1.67;;;29.20;89.20;;;;;;4982716;28;20519;-90
2022/09/04 11:45:06;;;;;;;3.75;1.70;;;29.00;87.20;;;;;;4926175;29;20059;-87
2022/09/04 11:47:57;;;;;;;2.00;1.58;;;28.90;87.90;;;;;;4951178;28;20447;-85
2022/09/04 11:50:48;;;;;;;2.47;1.88;;;28.70;87.60;;;;;;4982222;28;20059;-85
2022/09/04 11:54:04;;;;;;;2.47;1.75;;;28.80;87.80;;;;;;4978583;28;20437;-88
2022/09/04 11:57:35;;;;;;;3.72;1.60;;;29.00;88.30;;;;;;4989651;28;20059;-87
2022/09/04 12:00:16;;;;;;;2.45;1.60;;;28.60;87.30;;;;;;4988811;28;20050;-83
2022/09/04 12:03:31;;;;;;;2.55;1.80;;;28.20;86.60;;;;;;4983007;28;20122;-82
2022/09/04 12:06:09;;;;;;;2.92;2.00;;;29.10;86.80;;;;;;4962965;28;20686;-79
2022/09/04 12:09:06;;;;;;;3.55;1.65;;;29.10;86.60;;;;;;4964127;28;20065;-79
2022/09/04 12:12:09;;;;;;;3.33;1.77;;;29.50;86.30;;;;;;4961826;28;20049;-84
2022/09/04 12:14:54;;;;;;;2.33;1.73;;;29.60;85.30;;;;;;4978149;28;20047;-84
2022/09/04 12:17:39;;;;;;;3.53;2.10;;;29.50;85.60;;;;;;4962247;28;20065;-84
2022/09/04 12:20:08;;;;;;;5.90;1.90;;;29.40;84.90;;;;;;4970217;28;20055;-85
2022/09/04 12:22:55;;;;;;;3.08;1.80;;;29.20;85.70;;;;;;4995211;28;20792;-85
2022/09/04 12:25:38;;;;;;;3.17;2.00;;;29.10;85.50;;;;;;4977510;28;20046;-84
2022/09/04 12:28:43;;;;;;;2.53;1.80;;;29.20;86.10;;;;;;4978488;28;20051;-85
2022/09/04 12:31:41;;;;;;;2.38;1.80;;;29.20;85.40;;;;;;4964594;28;20054;-84
2022/09/04 12:34:28;;;;;;;2.65;1.83;;;29.60;84.70;;;;;;4966307;28;20054;-84
2022/09/04 12:37:02;;;;;;;3.80;2.00;;;29.80;83.90;;;;;;4981261;28;20086;-84
2022/09/04 12:40:01;;;;;;;2.55;2.15;;;30.00;83.70;;;;;;4997053;28;20082;-83
2022/09/04 12:42:40;;;;;;;3.00;2.08;;;30.20;82.90;;;;;;4980475;28;20130;-84
2022/09/04 12:45:29;;;;;;;3.15;2.20;;;30.30;82.00;;;;;;4981453;28;20066;-84
2022/09/04 12:48:03;;;;;;;2.95;2.10;;;30.50;81.80;;;;;;4983215;28;20374;-84
2022/09/04 12:50:37;;;;;;;6.72;1.95;;;30.60;81.60;;;;;;4972138;28;20059;-84
2022/09/04 12:53:27;;;;;;;2.47;1.83;;;30.60;81.30;;;;;;4980672;28;20073;-85
2022/09/04 12:56:15;;;;;;;3.03;1.92;;;30.80;80.90;;;;;;4982222;28;20142;-85
2022/09/04 12:59:11;;;;;;;3.30;2.10;;;31.00;80.40;;;;;;4987445;28;20129;-84
2022/09/04 13:02:01;;;;;;;3.38;1.92;;;31.00;80.50;;;;;;4977811;28;20145;-83
2022/09/04 13:04:39;;;;;;;3.22;1.80;;;30.70;80.60;;;;;;4973339;28;20054;-85
2022/09/04 13:07:39;;;;;;;3.35;2.20;;;30.80;79.70;;;;;;4974629;28;20112;-84
2022/09/04 13:10:12;;;;;;;3.45;2.15;;;31.10;79.50;;;;;;4987864;28;20116;-84
2022/09/04 13:12:57;;;;;;;3.42;2.00;;;31.30;79.50;;;;;;4970248;28;20647;-85
2022/09/04 13:15:38;;;;;;;;;;;31.60;79.10;;;;;;4986278;28;20050;-84
2022/09/04 13:18:20;;;;;;;2.78;1.80;;;31.90;77.40;;;;;;4984620;28;20004;-85
2022/09/04 13:20:57;;;;;;;3.58;2.10;;;32.10;77.00;;;;;;4982039;28;20385;-84
2022/09/04 13:23:44;;;;;;;3.65;2.30;;;32.10;76.40;;;;;;4980423;28;20392;-87
2022/09/04 13:26:44;;;;;;;5.78;2.72;;;32.40;77.30;;;;;;4984140;28;20050;-86
2022/09/04 13:33:21;;;;;;;5.20;2.47;;;32.30;77.20;;;;;;4994782;28;20086;-89
2022/09/04 13:39:27;;;;;;;3.03;2.72;;;31.80;77.50;;;;;;4972574;28;20698;-85
2022/09/04 13:42:27;;;;;;;3.92;2.50;;;31.70;77.20;;;;;;4899144;28;20063;-85
2022/09/04 13:45:19;;;;;;;;;;;;;;;;;;;;;
2022/09/04 13:48:43;;;;;;;;;;;;;;;;;;;;;
2022/09/04 13:51:41;;;;;;;3.78;2.20;;;32.00;76.80;;;;;;4959892;28;20405;-88
2022/09/04 13:54:30;;;;;;;5.40;2.47;;;32.00;76.80;;;;;;4978717;28;20065;-88
2022/09/04 13:57:26;;;;;;;4.10;2.50;;;32.10;76.60;;;;;;4984889;28;20050;-87
2022/09/04 13:59:58;;;;;;;;;;;32.00;75.70;;;;;;4972156;28;20050;-87
2022/09/04 14:02:29;;;;;;;4.15;2.50;;;31.70;76.30;;;;;;4970860;28;19933;-87
2022/09/04 14:05:14;;;;;;;3.13;2.22;;;31.60;76.60;;;;;;4983529;28;20103;-87
2022/09/04 14:07:49;;;;;;;3.17;2.47;;;31.60;75.70;;;;;;4972043;28;20587;-87
2022/09/04 14:10:47;;;;;;;;;;;31.70;76.70;;;;;;4993315;28;20042;-87
2022/09/04 14:14:00;;;;;;;6.38;2.28;;;31.80;76.80;;;;;;4966275;28;20372;-87
2022/09/04 14:16:36;;;;;;;;;;;;;;;;;;;;;
2022/09/04 14:19:31;;;;;;;3.67;2.35;;;31.50;76.30;;;;;;4997665;28;20047;-86
2022/09/04 14:22:39;;;;;;;3.42;1.92;;;31.70;75.10;;;;;;4980855;28;20039;-87
2022/09/04 14:25:21;;;;;;;4.72;2.47;;;31.90;75.10;;;;;;4971523;28;20596;-89
2022/09/04 14:28:05;;;;;;;4.72;2.78;;;32.10;75.90;;;;;;4968173;28;20523;-87
2022/09/04 14:31:09;;;;;;;;;;;;;;;;;;;;;
2022/09/04 14:33:55;;;;;;;5.38;2.65;;;32.00;75.70;;;;;;4982061;28;20038;-88
2022/09/04 14:36:53;;;;;;;4.10;2.22;;;31.80;75.50;;;;;;4966479;28;20054;-88
2022/09/04 14:39:24;;;;;;;4.85;3.95;;;32.00;75.70;;;;;;4978573;28;20062;-85
2022/09/04 14:42:15;;;;;;;4.43;3.00;;;31.70;75.50;;;;;;4982502;28;20404;-86
2022/09/04 14:45:12;;;;;;;5.00;3.03;;;31.30;75.70;;;;;;4959033;28;20069;-87
2022/09/04 14:48:04;;;;;;;4.15;2.95;;;30.90;76.40;;;;;;4979519;28;20050;-86
2022/09/04 14:50:53;;;;;;;3.90;3.05;;;30.80;77.10;;;;;;4983691;28;20515;-87
2022/09/04 14:53:47;;;;;;;6.15;3.25;;;30.90;77.40;;;;;;4977111;28;20046;-85
2022/09/04 14:56:19;;;;;;;4.35;3.10;;;30.80;77.00;;;;;;4946043;28;20201;-88
2022/09/04 14:58:50;;;;;;;4.05;3.63;;;30.80;76.90;;;;;;4980428;28;20049;-87
2022/09/04 15:01:37;;;;;;;5.43;3.90;;;30.60;76.90;;;;;;4979748;28;20057;-86
2022/09/04 15:04:45;;;;;;;;;;;;;;;;;;;;;
2022/09/04 15:07:45;;;;;;;4.30;3.50;;;30.20;77.40;;;;;;4967949;28;20100;-86
2022/09/04 15:11:11;;;;;;;3.35;3.03;;;30.10;77.50;;;;;;4987028;28;20060;-88
2022/09/04 15:13:54;;;;;;;3.67;2.88;;;29.90;78.50;;;;;;4904982;29;20043;-87
2022/09/04 15:16:38;;;;;;;4.95;2.83;;;29.80;78.80;;;;;;4905226;29;20655;-87
2022/09/04 15:19:35;;;;;;;4.00;3.60;;;29.80;79.50;;;;;;4888390;29;20062;-88
2022/09/04 15:22:25;;;;;;;5.40;3.60;;;29.70;79.80;;;;;;4935357;28;20458;-88
2022/09/04 15:25:28;;;;;;;;;;;;;;;;;;;;;
2022/09/04 15:32:07;;;;;;;4.47;2.80;;;29.30;81.40;;;;;;4942351;28;20089;-88
2022/09/04 15:34:44;;;;;;;4.07;3.60;;;29.10;81.90;;;;;;4990208;28;20044;-88
2022/09/04 15:37:15;;;;;;;6.68;3.50;;;29.00;82.00;;;;;;4991474;28;20602;-86
2022/09/04 15:39:56;;;;;;;5.07;3.45;;;28.90;82.10;;;;;;4975882;28;20122;-88
2022/09/04 15:42:41;;;;;;;4.35;3.63;;;29.10;82.40;;;;;;5004705;28;20145;-87
2022/09/04 15:45:33;;;;;;;5.57;3.70;;;29.00;82.10;;;;;;4988849;28;20080;-87
2022/09/04 15:48:36;;;;;;;4.28;2.70;;;29.10;82.40;;;;;;4965611;28;20085;-85
2022/09/04 15:51:38;;;;;;;5.05;3.30;;;29.10;82.70;;;;;;4983649;28;20049;-87
2022/09/04 15:54:12;;;;;;;3.75;3.05;;;29.10;82.80;;;;;;4979312;28;20050;-87
2022/09/04 15:57:07;;;;;;;5.47;4.18;;;29.10;82.30;;;;;;4986322;28;20073;-85
2022/09/04 15:59:45;;;;;;;3.97;3.30;;;29.20;82.60;;;;;;4979393;28;20049;-86
2022/09/04 16:02:26;;;;;;;4.97;3.60;;;29.00;82.60;;;;;;4965482;28;20141;-87
2022/09/04 16:05:10;;;;;;;7.70;4.20;;;28.90;82.70;;;;;;4971667;28;20112;-86
2022/09/04 16:08:19;;;;;;;5.65;4.20;;;28.80;82.70;;;;;;4973076;28;20064;-86
2022/09/04 16:10:59;;;;;;;6.20;3.30;;;28.80;82.90;;;;;;4895807;28;20060;-86
2022/09/04 16:13:33;;;;;;;4.40;3.92;;;28.70;83.20;;;;;;5002166;28;20034;-86
2022/09/04 16:16:50;;;;;;;7.15;3.22;;;28.60;83.50;;;;;;4980682;28;20057;-90
2022/09/04 16:19:53;;;;;;;3.88;2.90;;;28.50;83.70;;;;;;4979944;28;20054;-90
2022/09/04 16:26:08;;;;;;;4.15;2.88;;;28.40;83.90;;;;;;5006276;28;20104;-92
2022/09/04 16:28:43;;;;;;;4.90;2.93;;;28.50;84.00;;;;;;4974712;28;20152;-88
2022/09/04 16:31:32;;;;;;;4.75;3.60;;;28.50;84.10;;;;;;4997814;28;20316;-90
2022/09/04 16:37:51;;;;;;;;;;;;;;;;;;;;;
2022/09/04 16:44:44;;;;;;;3.88;3.00;;;27.70;84.90;;;;;;4989267;28;20511;-90
2022/09/04 16:47:17;;;;;;;4.50;2.63;;;27.90;85.70;;;;;;4988569;28;20088;-89
2022/09/04 16:51:04;;;;;;;3.20;2.47;;;27.80;85.40;;;;;;4992084;28;20046;-90
2022/09/04 16:57:25;;;;;;;3.30;2.50;;;27.60;86.20;;;;;;4952171;28;20098;-91
2022/09/04 17:03:23;;;;;;;4.75;2.70;;;27.40;86.80;;;;;;5001832;28;20125;-89
2022/09/04 17:06:10;;;;;;;5.32;2.40;;;27.30;87.00;;;;;;4956141;28;20120;-93
2022/09/04 17:08:47;;;;;;;5.38;2.22;;;27.20;87.40;;;;;;4980268;28;20053;-89
2022/09/04 17:11:33;;;;;;;;;;;;;;;;;;;;;
2022/09/04 17:14:05;;;;;;;3.13;2.25;;;27.10;87.60;;;;;;4985738;28;20058;-91
2022/09/04 17:17:22;;;;;;;4.10;2.08;;;26.80;87.60;;;;;;4976565;28;20086;-89
2022/09/04 17:20:30;;;;;;;5.20;2.33;;;27.00;88.10;;;;;;4941429;28;20058;-90
2022/09/04 17:23:18;;;;;;;3.13;2.17;;;26.80;87.70;;;;;;4985371;28;20077;-92
2022/09/04 17:26:25;;;;;;;3.35;2.70;;;26.70;88.90;;;;;;4967607;28;20050;-93
2022/09/04 17:29:28;;;;;;;3.08;2.00;;;26.60;88.90;;;;;;4976644;28;20053;-93
2022/09/04 17:32:22;;;;;;;4.00;2.28;;;26.10;89.20;;;;;;4968543;28;20038;-91
2022/09/04 17:35:28;;;;;;;4.18;2.03;;;26.10;88.90;;;;;;4970212;28;20397;-88
2022/09/04 17:38:34;;;;;;;;;;;;;;;;;;;;;
2022/09/04 17:44:40;;;;;;;2.72;1.98;;;26.20;90.20;;;;;;4998359;28;20161;-89
2022/09/04 17:50:33;;;;;;;2.22;1.80;;;26.00;90.40;;;;;;4987294;28;20476;-90
2022/09/04 17:53:09;;;;;;;2.83;2.10;;;25.90;90.50;;;;;;4982331;28;20042;-89
2022/09/04 17:55:46;;;;;;;5.10;2.08;;;25.90;90.60;;;;;;4983359;28;20046;-88
2022/09/04 17:58:52;;;;;;;3.78;2.03;;;25.90;90.90;;;;;;4984633;28;20069;-89
2022/09/04 18:01:27;;;;;;;2.60;2.10;;;25.90;91.00;;;;;;4986914;28;20060;-89
2022/09/04 18:04:18;;;;;;;3.70;2.40;;;25.80;91.00;;;;;;4983780;28;20069;-89
2022/09/04 18:07:22;;;;;;;3.00;2.20;;;25.70;91.30;;;;;;4987642;28;20109;-89